WOODBINE NJ US current weather conditions

sailwx.info

Wind from 021 at 2 knots gusting 9

Air temperature 3.9° C
Dewpoint -2.9° C

Last reported at 2019-Dec-07 07:11 UTC.
Time now 2019-Dec-07 08:53 UTC

Location: N 39°14' W 074°48'.
View on Google Maps.

See reports from other nearby stations

  
Tides and Currents Weather Stations Pressure Air Temp Water Temp Dewpoint Dewpoint Depression Visibility Wind Speed Wind Dir Waves Ship Positions
date/time (UTC)wind fromknots sea level pressurealtimeterstation pressurevisibilityair tempwater tempwave heightnotes
2019-Dec-07 07:11 021 2 gusting 9 3.9
2019-Dec-07 06:11 008 4 gusting 10 5.6
2019-Dec-07 05:11 016 4 gusting 8 6.7
2019-Dec-07 04:11 359 1 gusting 6 7.2
2019-Dec-07 03:11 335 2 gusting 8 8.9
2019-Dec-07 02:11 278 4 gusting 10 10.0
2019-Dec-07 01:11 253 6 gusting 10 9.4
2019-Dec-07 00:11 247 5 gusting 10 9.4
2019-Dec-06 23:11 251 6 gusting 12 8.9
2019-Dec-06 22:11 243 8 gusting 19 9.4
2019-Dec-06 21:11 241 7 gusting 14 10.0
2019-Dec-06 20:11 235 8 gusting 15 11.7
2019-Dec-06 19:11 238 8 gusting 14 12.2
2019-Dec-06 18:11 217 7 gusting 15 11.7
2019-Dec-06 17:11 201 7 gusting 15 10.0
2019-Dec-06 16:11 210 7 gusting 12 9.4
2019-Dec-06 15:11 212 3 gusting 10 7.2
2019-Dec-06 14:11 215 4 gusting 9 7.2
2019-Dec-06 13:11 202 0 gusting 1 -0.0
2019-Dec-06 12:11 -3.3
2019-Dec-06 11:11 -3.3
2019-Dec-06 10:11 -2.2
2019-Dec-06 09:11 177 0 gusting 1 -1.1
2019-Dec-06 08:11 251 0 gusting 4 0.6
2019-Dec-06 07:11 261 2 gusting 5 1.7
2019-Dec-06 06:11 277 2 gusting 5 1.7
2019-Dec-06 05:11 287 2 gusting 6 2.8
2019-Dec-06 04:11 269 3 gusting 6 2.8
2019-Dec-06 03:11 275 3 gusting 6 2.8
2019-Dec-06 02:11 275 3 gusting 6 3.3
2019-Dec-06 01:11 285 2 gusting 6 2.8
2019-Dec-06 00:11 291 3 gusting 11 5.0
2019-Dec-05 23:11 293 3 gusting 7 5.0
2019-Dec-05 22:11 317 4 gusting 14 5.6
2019-Dec-05 21:11 326 5 gusting 13 6.1
2019-Dec-05 20:11 328 6 gusting 14 6.7
2019-Dec-05 19:11 311 6 gusting 18 6.7
2019-Dec-05 18:11 285 7 gusting 19 6.7
2019-Dec-05 17:11 298 6 gusting 18 6.1
2019-Dec-05 16:11 301 6 gusting 19 6.1
2019-Dec-05 15:11 305 6 gusting 18 6.1
2019-Dec-05 14:11 315 8 gusting 19 6.1
2019-Dec-05 13:11 304 6 gusting 14 5.0
2019-Dec-05 12:11 301 5 gusting 12 4.4
2019-Dec-05 11:11 289 4 gusting 8 3.3
2019-Dec-05 10:11 279 3 gusting 7 3.3
2019-Dec-05 09:11 276 4 gusting 7 3.3
2019-Dec-05 08:11 267 3 gusting 6 2.8